Time;durP1;ratioP1;P1;durP2;ratioP2;P2;SDS_P1;SDS_P2;PMS_P1;PMS_P2;Temp;Humidity;BMP_temperature;BMP_pressure;BME280_temperature;BME280_humidity;BME280_pressure;Samples;Min_cycle;Max_cycle;Signal;HPM_P1;HPM_P2
2021/08/15 00:00:15;;;;;;;20.12;6.70;;;;;;;19.30;60.24;101439.56;1806096;78;25781;-62
2021/08/15 00:02:44;;;;;;;14.15;6.15;;;;;;;19.26;60.15;101435.48;1785950;78;25700;-62
2021/08/15 00:05:12;;;;;;;19.30;6.00;;;;;;;19.21;60.17;101433.81;1819160;78;25758;-62
2021/08/15 00:07:40;;;;;;;19.25;6.00;;;;;;;19.19;60.03;101442.67;1819019;78;25836;-62
2021/08/15 00:10:09;;;;;;;9.88;5.92;;;;;;;19.13;59.87;101442.03;1818646;78;27442;-62
2021/08/15 00:12:37;;;;;;;20.15;5.80;;;;;;;19.07;60.22;101443.05;1813329;78;25697;-61
2021/08/15 00:15:06;;;;;;;19.85;6.20;;;;;;;18.99;60.16;101440.88;1799159;79;25777;-61
2021/08/15 00:17:34;;;;;;;23.77;6.78;;;;;;;18.93;60.34;101433.72;1795045;79;25818;-60
2021/08/15 00:20:03;;;;;;;18.50;6.72;;;;;;;18.88;60.40;101437.97;1767517;81;25755;-61
2021/08/15 00:22:30;;;;;;;20.08;6.42;;;;;;;18.83;60.73;101437.66;1768011;81;28104;-61
2021/08/15 00:24:56;;;;;;;18.82;6.45;;;;;;;18.78;60.95;101436.81;1767266;81;25838;-61
2021/08/15 00:27:23;;;;;;;16.60;5.60;;;;;;;18.74;60.93;101441.77;1813436;79;25531;-62
2021/08/15 00:29:50;;;;;;;10.20;5.33;;;;;;;18.72;61.28;101437.52;1813779;78;25769;-62
2021/08/15 00:32:17;;;;;;;10.98;5.85;;;;;;;18.71;61.42;101436.66;1813757;78;25940;-62
2021/08/15 00:34:44;;;;;;;17.30;5.60;;;;;;;18.70;61.76;101432.22;1813751;77;27475;-62
2021/08/15 00:37:11;;;;;;;15.63;5.60;;;;;;;18.70;62.09;101437.67;1813556;79;25703;-62
2021/08/15 00:39:39;;;;;;;16.30;6.00;;;;;;;18.68;62.37;101437.02;1813479;78;25700;-61
2021/08/15 00:42:06;;;;;;;14.98;5.80;;;;;;;18.67;62.17;101433.95;1803077;78;25726;-61
2021/08/15 00:44:33;;;;;;;20.35;5.80;;;;;;;18.64;62.01;101428.84;1787475;80;25728;-61
2021/08/15 00:47:00;;;;;;;17.87;6.08;;;;;;;18.59;62.19;101424.44;1790128;78;27466;-61
2021/08/15 00:49:27;;;;;;;17.60;5.67;;;;;;;18.55;62.24;101420.34;1800781;78;25712;-61
2021/08/15 00:51:54;;;;;;;13.28;5.17;;;;;;;18.55;62.30;101428.02;1810497;78;25706;-61
2021/08/15 00:54:21;;;;;;;13.08;5.83;;;;;;;18.55;62.42;101424.42;1817025;77;25794;-61
2021/08/15 00:56:54;;;;;;;25.65;7.00;;;;;;;18.57;62.39;101427.84;1817343;78;25772;-61
2021/08/15 00:59:22;;;;;;;13.88;5.08;;;;;;;18.55;62.58;101429.87;1793943;78;27401;-61
2021/08/15 01:01:53;;;;;;;14.85;6.08;;;;;;;18.56;62.56;101426.13;1808681;78;25709;-61
2021/08/15 01:04:26;;;;;;;14.00;5.25;;;;;;;18.57;62.60;101423.75;1817573;78;25722;-61
2021/08/15 01:06:53;;;;;;;8.88;4.78;;;;;;;18.58;62.58;101426.29;1774156;78;25791;-61
2021/08/15 01:09:23;;;;;;;20.30;5.17;;;;;;;18.56;62.51;101431.05;1756262;81;25735;-61
2021/08/15 01:11:51;;;;;;;15.58;5.30;;;;;;;18.55;62.73;101425.79;1756534;81;27425;-61
2021/08/15 01:14:18;;;;;;;14.00;5.60;;;;;;;18.52;62.37;101425.62;1756160;81;25720;-61
2021/08/15 01:16:46;;;;;;;17.27;5.83;;;;;;;18.50;62.07;101429.56;1807008;78;25686;-61
2021/08/15 01:19:14;;;;;;;14.78;6.12;;;;;;;18.44;61.86;101423.76;1817109;78;26412;-61
2021/08/15 01:21:48;;;;;;;9.35;5.75;;;;;;;18.43;61.88;101418.49;1817020;78;25742;-61
2021/08/15 01:24:15;;;;;;;12.73;6.28;;;;;;;18.39;61.83;101422.57;1773029;78;27467;-61
2021/08/15 01:26:43;;;;;;;13.32;5.53;;;;;;;18.34;61.75;101419.00;1756070;81;25759;-61
2021/08/15 01:29:10;;;;;;;14.43;5.42;;;;;;;18.27;61.87;101421.58;1776452;78;25807;-62
2021/08/15 01:31:37;;;;;;;12.90;5.83;;;;;;;18.22;61.71;101410.33;1805793;78;25785;-61
2021/08/15 01:34:04;;;;;;;11.68;5.15;;;;;;;18.15;61.74;101415.60;1789543;80;25492;-61
2021/08/15 01:36:31;;;;;;;12.95;5.87;;;;;;;18.10;61.79;101422.09;1789358;80;27453;-61
2021/08/15 01:38:58;;;;;;;10.60;5.03;;;;;;;18.03;61.72;101422.43;1789659;80;25764;-61
2021/08/15 01:41:25;;;;;;;12.28;5.40;;;;;;;17.97;61.89;101419.03;1789088;79;25738;-61
2021/08/15 01:43:58;;;;;;;14.63;4.97;;;;;;;17.91;61.76;101412.85;1786638;80;26363;-61
2021/08/15 01:46:28;;;;;;;;;;;;;;;17.88;61.81;101412.69;1778335;80;25659;-61
2021/08/15 01:48:55;;;;;;;13.68;5.22;;;;;;;17.82;61.78;101412.84;1786863;79;28187;-61
2021/08/15 01:51:23;;;;;;;11.35;5.67;;;;;;;17.75;61.93;101409.11;1786596;80;25676;-61
2021/08/15 01:53:53;;;;;;;14.70;6.12;;;;;;;17.71;62.00;101410.44;1778906;80;25792;-61
2021/08/15 01:56:22;;;;;;;12.65;4.72;;;;;;;17.69;62.27;101405.70;1755473;81;26624;-61
2021/08/15 01:58:49;;;;;;;16.17;5.35;;;;;;;17.66;62.54;101406.03;1755653;81;26338;-61
2021/08/15 02:01:21;;;;;;;13.78;5.12;;;;;;;17.64;63.13;101403.98;1785590;80;27428;-61
2021/08/15 02:03:49;;;;;;;12.40;4.87;;;;;;;17.61;63.34;101406.53;1786671;79;25817;-61
2021/08/15 02:06:17;;;;;;;19.75;5.42;;;;;;;17.63;63.64;101409.94;1786750;79;25896;-61
2021/08/15 02:08:48;;;;;;;14.40;4.95;;;;;;;17.64;63.74;101410.28;1773023;80;25966;-61
2021/08/15 02:11:16;;;;;;;11.97;5.08;;;;;;;17.66;63.87;101404.66;1760109;80;25905;-61
2021/08/15 02:13:44;;;;;;;17.70;5.50;;;;;;;17.71;63.80;101409.61;1778126;80;28382;-61
2021/08/15 02:16:12;;;;;;;13.03;4.83;;;;;;;17.73;63.87;101411.66;1772474;79;25835;-61
2021/08/15 02:18:40;;;;;;;12.20;4.58;;;;;;;17.74;63.78;101410.64;1755386;81;26578;-61
2021/08/15 02:21:08;;;;;;;11.63;4.67;;;;;;;17.74;63.60;101411.48;1755905;81;25805;-61
2021/08/15 02:23:35;;;;;;;11.90;5.70;;;;;;;17.74;63.47;101403.84;1769042;80;25895;-61
2021/08/15 02:26:03;;;;;;;15.55;5.25;;;;;;;17.77;63.30;101411.16;1786764;80;27525;-61
2021/08/15 02:28:30;;;;;;;13.83;4.80;;;;;;;17.77;63.10;101404.84;1778274;80;25703;-61
2021/08/15 02:30:57;;;;;;;13.58;5.03;;;;;;;17.76;63.04;101405.86;1766128;81;25763;-61
2021/08/15 02:33:23;;;;;;;13.32;5.35;;;;;;;17.75;62.92;101409.11;1767412;80;26606;-61
2021/08/15 02:35:53;;;;;;;7.65;4.83;;;;;;;17.73;62.77;101403.49;1786573;80;25749;-62
2021/08/15 02:38:20;;;;;;;17.67;5.55;;;;;;;17.71;62.61;101401.45;1786804;79;27550;-61
2021/08/15 02:40:46;;;;;;;12.40;5.37;;;;;;;17.64;62.54;101399.89;1786536;80;25791;-61
2021/08/15 02:43:13;;;;;;;9.60;5.30;;;;;;;17.62;62.58;101398.71;1792880;79;25828;-61
2021/08/15 02:45:40;;;;;;;15.03;5.40;;;;;;;17.58;62.45;101394.61;1795930;79;25918;-61
2021/08/15 02:48:08;;;;;;;11.63;5.83;;;;;;;17.55;62.63;101399.53;1813669;78;25747;-61
2021/08/15 02:50:35;;;;;;;14.53;5.83;;;;;;;17.50;62.75;101400.91;1819120;78;28196;-61
2021/08/15 02:53:02;;;;;;;15.83;6.12;;;;;;;17.46;62.88;101399.52;1786319;79;25725;-62
2021/08/15 02:55:29;;;;;;;15.93;5.15;;;;;;;17.41;63.02;101401.91;1827834;78;25744;-60
2021/08/15 02:57:57;;;;;;;13.28;5.15;;;;;;;17.36;63.02;101402.89;1832557;78;25798;-61
2021/08/15 03:00:23;;;;;;;11.70;5.80;;;;;;;17.29;63.00;101405.44;1830584;78;26497;-61
2021/08/15 03:02:50;;;;;;;12.13;5.53;;;;;;;17.26;63.21;101407.13;1786422;79;28187;-62
2021/08/15 03:05:19;;;;;;;16.42;5.35;;;;;;;17.22;63.08;101411.17;1818725;78;25674;-61
2021/08/15 03:07:47;;;;;;;12.00;6.30;;;;;;;17.21;63.24;101413.05;1786418;80;25810;-61
2021/08/15 03:10:14;;;;;;;16.73;6.30;;;;;;;17.19;63.42;101415.59;1818618;78;25841;-61
2021/08/15 03:12:41;;;;;;;17.02;6.78;;;;;;;17.18;63.70;101412.02;1786598;80;25662;-62
2021/08/15 03:15:11;;;;;;;11.80;5.87;;;;;;;17.20;63.83;101414.59;1818108;78;27492;-61
2021/08/15 03:17:38;;;;;;;15.13;5.12;;;;;;;17.21;64.17;101414.41;1813314;77;25592;-61
2021/08/15 03:20:06;;;;;;;8.40;5.05;;;;;;;17.24;64.18;101417.83;1813268;78;25734;-61
2021/08/15 03:22:33;;;;;;;16.87;5.37;;;;;;;17.25;63.98;101423.61;1813927;78;25766;-61
2021/08/15 03:25:01;;;;;;;10.50;5.20;;;;;;;17.28;64.11;101420.55;1818754;78;25481;-61
2021/08/15 03:27:28;;;;;;;14.23;5.37;;;;;;;17.29;64.04;101413.59;1818836;78;27537;-61
2021/08/15 03:29:55;;;;;;;12.23;5.80;;;;;;;17.34;64.07;101426.18;1770703;78;26519;-61
2021/08/15 03:32:22;;;;;;;16.15;6.28;;;;;;;17.38;63.95;101421.26;1818596;78;25678;-61
2021/08/15 03:34:49;;;;;;;17.75;6.20;;;;;;;17.41;63.78;101423.66;1818701;78;25795;-61
2021/08/15 03:37:16;;;;;;;19.20;5.80;;;;;;;17.43;63.80;101420.27;1813279;78;25767;-61
2021/08/15 03:39:44;;;;;;;16.62;5.78;;;;;;;17.46;63.84;101424.00;1798998;79;27532;-61
2021/08/15 03:42:12;;;;;;;11.43;5.87;;;;;;;17.50;63.67;101424.52;1827421;78;25735;-61
2021/08/15 03:44:48;;;;;;;14.33;5.40;;;;;;;17.51;63.68;101423.02;1824367;78;26432;-61
2021/08/15 03:47:15;;;;;;;10.63;5.00;;;;;;;17.52;63.69;101423.36;1778672;79;26876;-63
2021/08/15 03:52:27;;;;;;;21.17;6.30;;;;;;;17.48;63.56;101410.26;1763001;79;27989;-63
2021/08/15 03:55:11;;;;;;;13.10;5.80;;;;;;;17.48;63.56;101410.26;1773075;79;25871;-64
2021/08/15 03:57:48;;;;;;;9.43;5.53;;;;;;;17.52;63.58;101424.72;1772873;79;25851;-64
2021/08/15 04:00:24;;;;;;;15.18;5.83;;;;;;;17.43;63.66;101395.80;1793461;78;25300;-63
2021/08/15 04:03:15;;;;;;;10.88;5.97;;;;;;;17.50;63.66;101419.08;1807928;78;25834;-65
2021/08/15 04:08:52;;;;;;;20.60;5.92;;;;;;;17.49;64.23;101417.37;1691931;81;25755;-65
2021/08/15 04:11:32;;;;;;;18.67;6.40;;;;;;;17.49;64.17;101414.16;1743216;81;26551;-64
2021/08/15 04:14:07;;;;;;;14.83;6.08;;;;;;;17.51;64.21;101412.63;1772321;79;25791;-64
2021/08/15 04:16:41;;;;;;;13.75;5.65;;;;;;;17.52;64.26;101417.05;1808036;78;27321;-64
2021/08/15 04:19:13;;;;;;;14.23;5.70;;;;;;;17.56;64.78;101418.44;1803598;78;27517;-62
2021/08/15 04:22:11;;;;;;;18.40;5.42;;;;;;;17.59;64.77;101418.08;1784119;79;25734;-63
2021/08/15 04:24:40;;;;;;;12.45;5.53;;;;;;;17.64;64.83;101414.36;1806761;79;25793;-63
2021/08/15 04:27:14;;;;;;;14.10;5.90;;;;;;;17.70;64.90;101421.50;1756697;78;25796;-63
2021/08/15 04:29:42;;;;;;;19.87;5.90;;;;;;;17.75;65.04;101419.15;1808043;79;25771;-63
2021/08/15 04:32:12;;;;;;;12.53;5.58;;;;;;;17.82;65.04;101420.17;1779364;79;27163;-60
2021/08/15 04:34:38;;;;;;;15.78;5.67;;;;;;;17.90;65.13;101407.06;1808430;79;25848;-60
2021/08/15 04:37:05;;;;;;;17.95;5.05;;;;;;;17.99;65.23;101412.89;1808363;79;25797;-60
2021/08/15 04:39:32;;;;;;;21.30;7.40;;;;;;;18.05;65.18;101408.64;1808093;79;25857;-59
2021/08/15 04:41:59;;;;;;;42.38;9.90;;;;;;;18.14;65.33;101410.34;1808253;79;25703;-62
2021/08/15 04:44:26;;;;;;;20.50;6.30;;;;;;;18.22;65.24;101404.89;1810460;79;27335;-60
2021/08/15 04:46:53;;;;;;;31.35;6.30;;;;;;;18.34;65.15;101405.91;1809234;79;25774;-60
2021/08/15 04:49:19;;;;;;;17.05;6.17;;;;;;;18.42;65.01;101404.53;1811658;79;25769;-62
2021/08/15 04:51:46;;;;;;;35.15;7.62;;;;;;;18.52;65.02;101409.78;1811511;79;26518;-62
2021/08/15 04:54:13;;;;;;;22.17;6.60;;;;;;;18.60;64.95;101409.79;1811846;79;25715;-62
2021/08/15 04:56:40;;;;;;;17.32;6.67;;;;;;;18.68;64.84;101409.77;1810993;79;27546;-60
2021/08/15 04:59:07;;;;;;;14.47;6.85;;;;;;;18.74;64.70;101413.15;1810952;79;25624;-60
2021/08/15 05:01:34;;;;;;;21.95;7.50;;;;;;;18.81;64.49;101409.71;1809923;78;25737;-60
2021/08/15 05:04:01;;;;;;;15.18;6.42;;;;;;;18.81;64.37;101407.86;1827953;78;25754;-60
2021/08/15 05:06:27;;;;;;;25.55;7.25;;;;;;;18.84;64.27;101402.56;1817717;78;25975;-61
2021/08/15 05:08:54;;;;;;;21.33;7.50;;;;;;;18.86;64.22;101405.44;1811081;78;28198;-60
2021/08/15 05:11:21;;;;;;;17.32;6.45;;;;;;;18.91;64.19;101403.55;1811128;79;25981;-60
2021/08/15 05:13:49;;;;;;;17.67;7.00;;;;;;;18.94;64.28;101401.88;1811246;79;25667;-60
2021/08/15 05:16:17;;;;;;;16.52;6.85;;;;;;;18.96;64.35;101401.16;1806217;79;25797;-60
2021/08/15 05:18:44;;;;;;;21.93;6.50;;;;;;;19.00;64.44;101408.51;1806367;79;25809;-60
2021/08/15 05:21:10;;;;;;;19.35;6.47;;;;;;;19.04;64.54;101413.43;1806314;79;27450;-61
2021/08/15 05:23:37;;;;;;;15.70;6.37;;;;;;;19.06;64.60;101410.52;1808700;79;25884;-60
2021/08/15 05:26:04;;;;;;;15.40;6.58;;;;;;;19.09;64.59;101410.17;1811564;79;25777;-60
2021/08/15 05:28:31;;;;;;;18.57;6.50;;;;;;;19.12;64.75;101408.96;1809664;79;26173;-60
2021/08/15 05:30:58;;;;;;;16.95;6.45;;;;;;;19.17;64.79;101409.27;1809711;79;25671;-60
2021/08/15 05:33:24;;;;;;;19.55;6.75;;;;;;;19.23;64.85;101414.00;1805844;79;27425;-60
2021/08/15 05:35:52;;;;;;;22.65;7.00;;;;;;;19.30;64.96;101409.56;1806325;79;25702;-60
2021/08/15 05:38:19;;;;;;;18.70;5.70;;;;;;;19.39;65.13;101412.58;1805957;79;25805;-60
2021/08/15 05:40:46;;;;;;;30.15;6.95;;;;;;;19.46;65.12;101411.85;1806505;79;25765;-60
2021/08/15 05:43:12;;;;;;;25.00;6.42;;;;;;;19.52;65.24;101414.72;1806727;78;25860;-61
2021/08/15 05:45:41;;;;;;;25.37;6.55;;;;;;;19.58;64.81;101412.29;1819060;78;27449;-61
2021/08/15 05:48:09;;;;;;;19.60;6.58;;;;;;;19.64;65.08;101418.38;1818635;78;25725;-61
2021/08/15 05:50:36;;;;;;;23.10;6.05;;;;;;;19.69;64.67;101415.45;1818871;78;25726;-62
2021/08/15 05:53:03;;;;;;;15.38;5.55;;;;;;;19.79;64.65;101407.53;1818796;78;25800;-61
2021/08/15 05:55:30;;;;;;;16.75;6.37;;;;;;;19.86;64.41;101412.13;1788012;78;25815;-62
2021/08/15 05:57:57;;;;;;;10.38;5.92;;;;;;;19.93;64.41;101416.35;1786393;80;27329;-61
2021/08/15 06:00:24;;;;;;;10.20;5.80;;;;;;;20.02;64.25;101417.12;1798618;78;26449;-61
2021/08/15 06:02:51;;;;;;;31.20;6.58;;;;;;;20.08;63.85;101416.91;1818658;78;25746;-61
2021/08/15 06:05:18;;;;;;;20.50;6.17;;;;;;;20.13;63.57;101421.29;1818802;78;25798;-61
2021/08/15 06:07:45;;;;;;;14.70;6.08;;;;;;;20.17;63.36;101422.10;1818636;78;25673;-61
2021/08/15 06:10:13;;;;;;;18.70;6.70;;;;;;;20.22;63.06;101422.91;1819011;78;27472;-62
2021/08/15 06:12:41;;;;;;;12.82;6.08;;;;;;;20.26;62.88;101418.80;1818589;78;25783;-61
2021/08/15 06:15:14;;;;;;;16.23;5.85;;;;;;;20.32;62.87;101416.69;1818501;78;25801;-61
2021/08/15 06:17:42;;;;;;;;;;;;;;;20.38;62.65;101426.55;1821152;78;26510;-61
2021/08/15 06:20:12;;;;;;;25.85;6.60;;;;;;;20.41;62.46;101420.70;1818349;78;25741;-61
2021/08/15 06:22:43;;;;;;;20.35;6.42;;;;;;;20.44;62.35;101425.27;1818671;78;27468;-61
2021/08/15 06:25:13;;;;;;;20.32;6.83;;;;;;;20.47;62.38;101418.08;1818529;78;25778;-61
2021/08/15 06:27:44;;;;;;;17.82;6.58;;;;;;;20.52;62.27;101413.42;1792296;78;25763;-61
2021/08/15 06:30:17;;;;;;;22.35;6.08;;;;;;;20.56;62.32;101421.59;1810325;78;25786;-61
2021/08/15 06:32:50;;;;;;;21.73;6.50;;;;;;;20.59;62.30;101419.83;1786582;80;25832;-60
2021/08/15 06:35:21;;;;;;;16.90;6.53;;;;;;;20.65;62.23;101419.61;1786316;80;27490;-61
2021/08/15 06:37:52;;;;;;;16.17;6.00;;;;;;;20.72;62.16;101421.91;1755527;81;25913;-61
2021/08/15 06:40:22;;;;;;;14.63;5.97;;;;;;;20.79;62.05;101420.19;1786570;80;25790;-61
2021/08/15 06:42:49;;;;;;;13.13;5.37;;;;;;;20.87;62.02;101421.13;1756868;78;26359;-61
2021/08/15 06:45:20;;;;;;;17.77;6.28;;;;;;;20.97;62.45;101420.83;1812387;78;25750;-61
2021/08/15 06:47:46;;;;;;;13.65;5.65;;;;;;;21.07;61.98;101420.02;1823971;78;27514;-61
2021/08/15 06:50:14;;;;;;;16.25;5.90;;;;;;;21.17;61.78;101413.73;1824654;78;25705;-61
2021/08/15 06:52:42;;;;;;;17.57;5.60;;;;;;;21.27;61.64;101409.32;1824870;78;25709;-61
2021/08/15 06:55:10;;;;;;;23.67;5.72;;;;;;;21.41;61.58;101411.20;1824813;78;25892;-61
2021/08/15 06:57:37;;;;;;;15.53;6.50;;;;;;;21.55;61.31;101409.45;1824109;78;25756;-61
2021/08/15 07:00:07;;;;;;;21.75;6.05;;;;;;;21.70;60.70;101412.69;1824815;78;27486;-61
2021/08/15 07:02:38;;;;;;;9.58;5.17;;;;;;;21.82;60.20;101417.98;1824962;78;25671;-61
2021/08/15 07:05:08;;;;;;;15.60;5.62;;;;;;;21.95;59.94;101405.44;1825115;78;25629;-61
2021/08/15 07:07:35;;;;;;;14.13;5.80;;;;;;;22.07;59.32;101405.25;1796024;78;26424;-61
2021/08/15 07:10:04;;;;;;;13.43;6.35;;;;;;;22.17;58.52;101407.64;1796543;78;25987;-61
2021/08/15 07:12:31;;;;;;;19.75;5.95;;;;;;;22.26;58.38;101405.62;1778873;80;27454;-61
2021/08/15 07:14:58;;;;;;;17.37;5.67;;;;;;;22.37;57.71;101409.16;1785109;80;25832;-61
2021/08/15 07:17:25;;;;;;;17.10;6.03;;;;;;;22.48;57.50;101412.77;1784366;80;25784;-61
2021/08/15 07:19:52;;;;;;;14.47;6.00;;;;;;;22.57;57.26;101410.73;1785055;80;25825;-61
2021/08/15 07:22:19;;;;;;;16.55;5.35;;;;;;;22.68;57.00;101405.73;1785041;80;25821;-61
2021/08/15 07:24:47;;;;;;;13.55;5.37;;;;;;;22.79;56.82;101406.02;1789442;80;28195;-62
2021/08/15 07:27:14;;;;;;;24.65;5.85;;;;;;;22.91;55.46;101405.42;1803384;78;25872;-62
2021/08/15 07:29:40;;;;;;;20.75;5.95;;;;;;;23.02;55.59;101408.14;1820381;78;25788;-62
2021/08/15 07:32:08;;;;;;;12.40;5.17;;;;;;;23.13;55.77;101409.77;1823484;78;25809;-62
2021/08/15 07:34:35;;;;;;;8.80;5.20;;;;;;;23.25;54.89;101410.59;1823744;78;25734;-62
2021/08/15 07:37:03;;;;;;;15.60;5.80;;;;;;;23.34;54.92;101402.50;1823576;78;28161;-62
2021/08/15 07:39:30;;;;;;;11.25;5.20;;;;;;;23.44;54.38;101402.09;1823523;78;25757;-62
2021/08/15 07:41:56;;;;;;;14.75;5.12;;;;;;;23.51;54.09;101407.07;1823789;78;25793;-62
2021/08/15 07:44:23;;;;;;;14.83;5.50;;;;;;;23.59;53.84;101402.76;1820892;78;26501;-62
2021/08/15 07:46:50;;;;;;;15.35;5.40;;;;;;;23.70;53.62;101395.83;1817695;78;25734;-62
2021/08/15 07:49:17;;;;;;;14.13;4.70;;;;;;;23.81;52.95;101395.73;1817545;78;27518;-62
2021/08/15 07:51:44;;;;;;;13.53;4.92;;;;;;;23.88;52.42;101392.45;1817367;78;25939;-62
2021/08/15 07:54:11;;;;;;;16.05;6.17;;;;;;;23.96;52.21;101391.45;1812120;78;25843;-61
2021/08/15 07:56:38;;;;;;;12.47;5.47;;;;;;;24.05;51.44;101394.31;1778887;79;26486;-62
2021/08/15 07:59:05;;;;;;;14.05;5.80;;;;;;;24.17;51.29;101388.16;1779210;80;26482;-62
2021/08/15 08:01:32;;;;;;;12.05;5.20;;;;;;;24.30;51.53;101387.30;1766693;80;28348;-62
2021/08/15 08:03:59;;;;;;;26.75;10.65;;;;;;;24.40;50.73;101389.09;1757672;80;25830;-62
2021/08/15 08:06:26;;;;;;;17.73;5.08;;;;;;;24.51;50.44;101377.45;1758026;81;25735;-62
2021/08/15 08:08:52;;;;;;;12.90;5.90;;;;;;;24.64;50.25;101376.57;1758718;80;25820;-62
2021/08/15 08:11:19;;;;;;;13.72;6.55;;;;;;;24.80;49.76;101374.44;1757921;80;25807;-62
2021/08/15 08:13:47;;;;;;;7.47;4.58;;;;;;;24.91;49.14;101371.02;1757842;81;27440;-62
2021/08/15 08:16:15;;;;;;;13.93;6.00;;;;;;;25.03;48.81;101373.09;1757033;81;25735;-62
2021/08/15 08:18:41;;;;;;;14.55;5.00;;;;;;;25.15;48.51;101372.70;1757804;81;25768;-62
2021/08/15 08:21:08;;;;;;;7.95;4.60;;;;;;;25.26;48.52;101361.55;1757746;81;25799;-62
2021/08/15 08:23:35;;;;;;;10.43;4.20;;;;;;;25.39;47.51;101359.25;1771084;80;25920;-62
2021/08/15 08:26:02;;;;;;;13.85;4.45;;;;;;;25.54;45.80;101359.82;1789599;80;27357;-61
2021/08/15 08:28:29;;;;;;;10.70;3.90;;;;;;;25.65;45.43;101361.01;1789700;80;25815;-62
2021/08/15 08:30:56;;;;;;;6.95;3.87;;;;;;;25.77;45.20;101362.53;1789496;80;25805;-62
2021/08/15 08:33:24;;;;;;;9.78;4.10;;;;;;;25.89;44.56;101352.45;1789519;80;26475;-62
2021/08/15 08:35:52;;;;;;;13.08;4.37;;;;;;;26.01;44.99;101348.98;1780522;80;26631;-61
2021/08/15 08:41:10;;;;;;;11.75;3.55;;;;;;;26.24;42.82;101346.45;1715664;81;25914;-64
2021/08/15 08:43:41;;;;;;;9.78;4.05;;;;;;;26.41;40.41;101341.72;1755851;80;25759;-64
2021/08/15 08:46:13;;;;;;;13.25;3.70;;;;;;;26.53;41.01;101342.66;1762965;80;26439;-62
2021/08/15 08:48:46;;;;;;;10.53;4.15;;;;;;;26.77;40.18;101344.76;1788143;80;25802;-62
2021/08/15 08:51:22;;;;;;;9.50;3.50;;;;;;;26.94;40.13;101344.44;1788941;80;27629;-63
2021/08/15 08:53:50;;;;;;;13.28;4.00;;;;;;;27.06;39.13;101341.73;1787899;80;25850;-62
2021/08/15 08:56:21;;;;;;;9.43;3.75;;;;;;;27.25;38.65;101343.06;1789857;80;25849;-63
2021/08/15 08:58:49;;;;;;;10.85;3.65;;;;;;;27.42;37.96;101347.41;1789612;80;25755;-62
2021/08/15 09:01:16;;;;;;;8.98;3.65;;;;;;;27.54;36.91;101332.27;1789640;80;25860;-62
2021/08/15 09:03:45;;;;;;;7.53;3.25;;;;;;;27.71;36.08;101335.17;1789819;80;26837;-62
2021/08/15 09:06:27;;;;;;;5.70;4.17;;;;;;;27.87;36.43;101333.12;1789479;80;25738;-62
2021/08/15 09:08:55;;;;;;;16.10;4.35;;;;;;;28.06;36.81;101324.16;1787204;80;34918;-62
2021/08/15 09:11:25;;;;;;;8.73;3.55;;;;;;;28.34;36.59;101325.39;1789646;80;25849;-62
2021/08/15 09:14:06;;;;;;;10.78;4.62;;;;;;;28.60;36.76;101316.81;1789703;80;25813;-62
2021/08/15 09:16:55;;;;;;;7.72;4.40;;;;;;;28.85;35.06;101318.76;1789292;80;27450;-62
2021/08/15 09:19:31;;;;;;;11.88;3.62;;;;;;;29.10;35.49;101316.72;1762052;80;25692;-63
2021/08/15 09:22:20;;;;;;;15.10;3.62;;;;;;;29.41;33.54;101319.54;1758667;80;26389;-63
2021/08/15 09:25:14;;;;;;;10.43;3.62;;;;;;;29.65;33.57;101318.86;1781364;80;26588;-66
2021/08/15 09:27:56;;;;;;;10.75;4.15;;;;;;;30.00;33.21;101314.71;1783943;80;25983;-63
2021/08/15 09:30:29;;;;;;;6.23;3.80;;;;;;;30.34;33.15;101307.17;1784710;80;28339;-62
2021/08/15 09:33:10;;;;;;;8.05;3.60;;;;;;;30.71;32.99;101302.95;1817418;78;25766;-62
2021/08/15 09:35:40;;;;;;;11.85;3.75;;;;;;;31.19;32.29;101308.25;1817409;78;25817;-62
2021/08/15 09:38:14;;;;;;;14.07;4.10;;;;;;;31.73;31.11;101309.31;1817526;78;25984;-62
2021/08/15 09:40:48;;;;;;;15.45;3.50;;;;;;;32.29;29.90;101308.05;1808352;78;25714;-62
2021/08/15 09:43:27;;;;;;;5.72;3.27;;;;;;;32.75;28.68;101302.69;1817685;78;27485;-62
2021/08/15 09:45:58;;;;;;;12.68;3.60;;;;;;;33.25;28.32;101307.84;1819764;78;26544;-62
2021/08/15 09:48:30;;;;;;;7.03;3.52;;;;;;;33.81;27.80;101309.83;1756388;80;25798;-62
2021/08/15 09:51:17;;;;;;;10.08;3.42;;;;;;;34.35;27.60;101301.09;1787593;80;25955;-62
2021/08/15 09:53:58;;;;;;;11.68;3.25;;;;;;;34.92;26.13;101309.55;1790248;78;25752;-62
2021/08/15 09:56:41;;;;;;;9.65;3.75;;;;;;;35.40;26.13;101303.91;1791320;80;27769;-62
2021/08/15 09:59:23;;;;;;;13.68;3.15;;;;;;;36.01;26.16;101296.13;1768884;80;25708;-62
2021/08/15 10:01:55;;;;;;;10.82;3.67;;;;;;;36.57;25.22;101300.83;1802170;78;25808;-62
2021/08/15 10:04:25;;;;;;;4.78;3.17;;;;;;;36.99;24.44;101299.15;1808719;78;25783;-62
2021/08/15 10:06:55;;;;;;;9.80;3.02;;;;;;;37.24;23.39;101289.52;1787047;79;25748;-63
2021/08/15 10:09:24;;;;;;;17.37;3.45;;;;;;;37.57;22.41;101288.73;1795776;79;28301;-63
2021/08/15 10:11:52;;;;;;;8.18;3.62;;;;;;;37.84;21.92;101292.15;1793300;79;25823;-63
2021/08/15 10:14:19;;;;;;;12.53;3.50;;;;;;;38.09;22.71;101282.17;1796143;79;25737;-63
2021/08/15 10:16:59;;;;;;;12.65;3.50;;;;;;;38.45;22.53;101279.51;1796044;79;26126;-63
2021/08/15 10:19:58;;;;;;;7.70;3.22;;;;;;;38.83;20.79;101279.23;1800398;79;25815;-63
2021/08/15 10:22:28;;;;;;;8.58;4.75;;;;;;;39.07;21.58;101271.66;1777466;79;27472;-62
2021/08/15 10:25:04;;;;;;;12.88;4.00;;;;;;;39.43;20.94;101269.38;1790343;79;25749;-62
2021/08/15 10:27:48;;;;;;;6.87;2.85;;;;;;;39.75;19.70;101273.09;1791349;79;25727;-62
2021/08/15 10:30:35;;;;;;;6.42;3.22;;;;;;;39.89;19.22;101262.54;1796915;79;25861;-62
2021/08/15 10:33:11;;;;;;;6.33;2.87;;;;;;;39.98;19.61;101249.91;1788155;79;25977;-62
2021/08/15 10:35:38;;;;;;;6.62;3.70;;;;;;;40.23;19.82;101248.94;1787754;79;27572;-61
2021/08/15 10:38:23;;;;;;;4.60;2.98;;;;;;;40.46;19.04;101247.39;1794746;79;25793;-62
2021/08/15 10:40:50;;;;;;;8.70;3.05;;;;;;;40.66;19.16;101243.13;1800029;79;26451;-62
2021/08/15 10:43:31;;;;;;;8.63;2.98;;;;;;;40.66;18.38;101237.49;1795760;79;26646;-62
2021/08/15 10:46:18;;;;;;;7.95;3.37;;;;;;;40.84;18.61;101234.11;1792078;79;25979;-62
2021/08/15 10:49:13;;;;;;;7.03;3.00;;;;;;;41.14;18.27;101230.88;1797785;79;28187;-62
2021/08/15 10:51:45;;;;;;;10.18;3.40;;;;;;;41.44;18.06;101229.57;1790948;79;26469;-62
2021/08/15 10:54:30;;;;;;;;;;;;;;;41.53;17.61;101225.91;1800649;79;25972;-62
2021/08/15 10:57:06;;;;;;;6.35;2.85;;;;;;;41.64;17.61;101224.95;1775089;79;25798;-62
2021/08/15 10:59:39;;;;;;;6.12;2.80;;;;;;;41.86;18.40;101220.47;1798018;79;25852;-62
2021/08/15 11:02:12;;;;;;;8.83;3.30;;;;;;;42.27;17.29;101220.09;1771478;79;27382;-62
2021/08/15 11:04:41;;;;;;;5.17;3.17;;;;;;;42.53;17.50;101212.87;1766528;81;26513;-62
2021/08/15 11:07:08;;;;;;;4.92;2.90;;;;;;;42.87;16.49;101215.76;1753883;81;25748;-62
2021/08/15 11:09:55;;;;;;;11.12;3.10;;;;;;;43.01;16.32;101210.64;1714504;82;26413;-61
2021/08/15 11:12:23;;;;;;;5.72;2.72;;;;;;;43.03;15.58;101217.36;1759514;80;25691;-61
2021/08/15 11:15:04;;;;;;;5.30;2.70;;;;;;;42.74;16.41;101213.43;1760507;81;27502;-64
2021/08/15 11:17:34;;;;;;;5.23;2.70;;;;;;;42.62;16.67;101200.91;1756709;81;25827;-63
2021/08/15 11:20:43;;;;;;;6.33;2.50;;;;;;;43.08;16.23;101207.25;1756295;81;25798;-62
2021/08/15 11:23:20;;;;;;;5.25;2.60;;;;;;;43.28;15.66;101207.79;1774775;80;27335;-63
2021/08/15 11:25:48;;;;;;;10.43;2.92;;;;;;;43.37;15.75;101199.78;1789938;80;25742;-64
2021/08/15 11:28:17;;;;;;;14.18;2.65;;;;;;;43.05;15.07;101196.02;1775826;80;28212;-64
2021/08/15 11:30:53;;;;;;;5.33;2.80;;;;;;;42.96;15.92;101194.70;1779321;80;25753;-61
2021/08/15 11:33:24;;;;;;;7.05;2.90;;;;;;;43.12;15.94;101185.55;1784279;79;25767;-61
2021/08/15 11:35:54;;;;;;;3.72;2.40;;;;;;;43.51;15.68;101196.05;1760380;81;25788;-62
2021/08/15 11:38:20;;;;;;;5.35;2.45;;;;;;;43.62;15.41;101193.00;1766842;80;25770;-62
2021/08/15 11:40:52;;;;;;;8.08;2.90;;;;;;;43.49;15.21;101185.66;1779566;80;28140;-62